RJTT/HND METAR and TAF weather

Enter ICAO airport designator
Station Type Date Time Source
RJTT METAR 2021/05/14 13:30 UTC NOAA

RJTT 141330Z 10006KT 9999 FEW030 SCT080 BKN/// 19/18 Q1015 NOSIG RMK 1CU030 3AC080 A2999


Station Type Date Time Source
RJTT Decoded METAR 2021/05/14 13:30 UTC NOAA

Tokyo International Airport, Japan (RJTT) 35-33N 139-47E 8M
May 14, 2021 - 09:30 AM EDT / 2021.05.14 1330 UTC
Wind: from the E (100 degrees) at 7 MPH (6 KT):0
Visibility: greater than 7 mile(s):0
Sky conditions: mostly cloudy
Temperature: 66 F (19 C)
Dew Point: 64 F (18 C)
Relative Humidity: 93%
Pressure (altimeter): 29.97 in. Hg (1015 hPa)
ob: RJTT 141330Z 10006KT 9999 FEW030 SCT080 BKN/// 19/18 Q1015 NOSIG RMK 1CU030 3AC080 A2999
cycle: 13

Station Type Date Time Source
RJTT TAF 2021/05/14 12:30 UTC NOAA

TAF RJTT 141105Z 1412/1518 14006KT 8000 FEW008 BKN012
BECMG 1416/1418 05006KT
TEMPO 1419/1500 4000 BR FEW005 BKN008
BECMG 1503/1506 18010KT

Example: see airport list